Terminal Aerodrome Forecast
Issued by NWS

Home | Current Version | Previous Version | Text Only | Print | Product List | Glossary On
Versions: 1 2 3 4 5 6 7 8 9 10 11 12
000
FTUS44 KLIX 282300
TAFMCB
TAF
KMCB 282329Z 2900/2924 17006KT P6SM SKC
     FM291700 20009KT P6SM BKN030
     FM292200 19009KT P6SM BKN035
     FM292300 19008KT P6SM SCT035=

USA.gov is the U.S. government's official web portal to all federal, state and local government web resources and services.